Time;durP1;ratioP1;P1;durP2;ratioP2;P2;SDS_P1;SDS_P2;PMS_P1;PMS_P2;Temp;Humidity;BMP_temperature;BMP_pressure;BME280_temperature;BME280_humidity;BME280_pressure;Samples;Min_cycle;Max_cycle;Signal;HPM_P1;HPM_P2
2023/01/18 00:01:36;;;;;;;1999.90;999.90;;;0.80;99.90;;;;;;5034352;28;20034;-76
2023/01/18 00:04:02;;;;;;;1999.90;999.90;;;0.80;99.90;;;;;;5034251;28;20601;-76
2023/01/18 00:06:27;;;;;;;1999.90;999.90;;;0.80;99.90;;;;;;5033699;28;20061;-77
2023/01/18 00:08:54;;;;;;;1999.90;999.90;;;0.80;99.90;;;;;;5033938;28;20081;-76
2023/01/18 00:11:19;;;;;;;1999.90;999.90;;;0.80;99.90;;;;;;5051363;28;20042;-76
2023/01/18 00:13:46;;;;;;;1999.90;999.90;;;0.80;99.90;;;;;;5053888;28;20033;-76
2023/01/18 00:16:14;;;;;;;1999.90;999.90;;;0.70;99.90;;;;;;5052313;28;20121;-76
2023/01/18 00:18:40;;;;;;;1999.90;999.90;;;0.80;99.90;;;;;;5054040;28;20034;-77
2023/01/18 00:21:08;;;;;;;1999.90;999.90;;;0.90;99.90;;;;;;5043831;28;20129;-77
2023/01/18 00:23:33;;;;;;;1999.90;999.90;;;0.80;99.90;;;;;;5056978;28;20080;-76
2023/01/18 00:26:00;;;;;;;1999.90;999.90;;;0.90;99.90;;;;;;5056829;28;20096;-77
2023/01/18 00:28:26;;;;;;;1999.90;999.90;;;0.90;99.90;;;;;;5057281;28;20034;-77
2023/01/18 00:30:51;;;;;;;1999.90;999.90;;;0.90;99.90;;;;;;5057294;28;20846;-77
2023/01/18 00:33:17;;;;;;;1999.90;999.90;;;1.00;99.90;;;;;;5056639;28;20037;-77
2023/01/18 00:35:42;;;;;;;1999.90;999.90;;;0.90;99.90;;;;;;5056683;28;20033;-77
2023/01/18 00:38:11;;;;;;;1999.90;999.90;;;0.90;99.90;;;;;;5057041;28;20033;-76
2023/01/18 00:40:37;;;;;;;1999.90;999.90;;;0.90;99.90;;;;;;5057111;28;20068;-76
2023/01/18 00:45:47;;;;;;;1999.90;999.90;;;0.80;99.90;;;;;;5057013;28;20514;-76
2023/01/18 00:48:12;;;;;;;1999.90;999.90;;;0.80;99.90;;;;;;5055489;28;20026;-76
2023/01/18 00:50:38;;;;;;;1999.90;999.90;;;0.90;99.90;;;;;;5042508;28;20045;-77
2023/01/18 00:53:03;;;;;;;1999.90;999.90;;;0.90;99.90;;;;;;5056825;28;20030;-76
2023/01/18 00:55:29;;;;;;;1999.90;999.90;;;0.90;99.90;;;;;;5056666;28;20037;-77
2023/01/18 00:57:54;;;;;;;1999.90;999.90;;;1.00;99.90;;;;;;5057670;28;20124;-77
2023/01/18 01:00:25;;;;;;;1999.90;999.90;;;0.90;99.90;;;;;;5075960;28;20091;-76
2023/01/18 01:02:51;;;;;;;1999.90;999.90;;;1.00;99.90;;;;;;5062949;28;20022;-76
2023/01/18 01:08:04;;;;;;;1999.90;999.90;;;1.00;99.90;;;;;;5037898;28;20026;-76
2023/01/18 01:10:31;;;;;;;1999.90;999.90;;;1.10;99.90;;;;;;5037241;28;20041;-76
2023/01/18 01:26:37;;;;;;;1999.90;999.90;;;1.00;99.90;;;;;;5036350;28;20492;-74
2023/01/18 01:29:02;;;;;;;1999.90;999.90;;;0.90;99.90;;;;;;5040420;28;20033;-74
2023/01/18 01:31:28;;;;;;;1999.90;999.90;;;0.90;99.90;;;;;;5054197;28;20053;-74
2023/01/18 01:33:53;;;;;;;1999.90;999.90;;;0.90;99.90;;;;;;5056205;28;20036;-76
2023/01/18 01:36:24;;;;;;;1999.90;999.90;;;0.90;99.90;;;;;;5055182;28;20045;-76
2023/01/18 01:38:50;;;;;;;1999.90;999.90;;;0.90;99.90;;;;;;5056359;28;20032;-76
2023/01/18 01:41:31;;;;;;;1999.90;999.90;;;0.90;99.90;;;;;;5056144;28;20044;-76
2023/01/18 01:44:03;;;;;;;1999.90;999.90;;;0.90;99.90;;;;;;5054589;28;20033;-76
2023/01/18 01:46:29;;;;;;;1999.90;999.90;;;0.80;99.90;;;;;;5053933;28;20076;-76
2023/01/18 01:49:06;;;;;;;1999.90;999.90;;;0.80;99.90;;;;;;5036190;28;20034;-76
2023/01/18 01:51:33;;;;;;;1999.90;999.90;;;0.70;99.90;;;;;;5036175;28;20417;-76
2023/01/18 01:54:04;;;;;;;1999.90;999.90;;;0.80;99.90;;;;;;5036097;28;20057;-76
2023/01/18 01:56:30;;;;;;;1999.90;999.90;;;0.80;99.90;;;;;;5035723;28;20030;-76
2023/01/18 01:58:59;;;;;;;1999.90;999.90;;;0.80;99.90;;;;;;5055804;28;20201;-76
2023/01/18 02:01:27;;;;;;;1999.90;999.90;;;0.90;99.90;;;;;;5055617;28;20033;-76
2023/01/18 02:03:54;;;;;;;1999.90;999.90;;;1.00;99.90;;;;;;5055615;28;20520;-76
2023/01/18 02:06:31;;;;;;;1999.90;999.90;;;1.00;99.90;;;;;;5055119;28;20040;-76
2023/01/18 02:08:59;;;;;;;1999.90;999.90;;;0.90;99.90;;;;;;5035476;28;20030;-76
2023/01/18 02:11:25;;;;;;;1999.90;999.90;;;1.00;99.90;;;;;;5055119;28;20041;-76
2023/01/18 02:13:52;;;;;;;1999.90;999.90;;;1.00;99.90;;;;;;5055712;28;20040;-76
2023/01/18 02:16:43;;;;;;;1999.90;999.90;;;1.00;99.90;;;;;;5045223;28;20799;-76
2023/01/18 02:19:20;;;;;;;1999.90;999.90;;;1.00;99.90;;;;;;5034323;28;20038;-76
2023/01/18 02:21:55;;;;;;;1999.90;999.90;;;1.00;99.90;;;;;;5038988;28;20048;-76
2023/01/18 02:24:50;;;;;;;1999.90;999.90;;;1.00;99.90;;;;;;5056086;28;20045;-76
2023/01/18 02:27:43;;;;;;;1999.90;999.90;;;0.90;99.90;;;;;;5050192;28;20099;-76
2023/01/18 02:30:28;;;;;;;1999.90;999.90;;;0.90;99.90;;;;;;5035467;28;20041;-76
2023/01/18 02:32:59;;;;;;;1999.90;999.90;;;0.90;99.90;;;;;;5035737;28;20037;-76
2023/01/18 02:35:37;;;;;;;1999.90;999.90;;;0.90;99.90;;;;;;5043156;28;20801;-76
2023/01/18 02:38:05;;;;;;;1999.90;999.90;;;0.80;99.90;;;;;;5045728;28;20034;-76
2023/01/18 02:40:45;;;;;;;1999.90;999.90;;;0.80;99.90;;;;;;5055450;28;20033;-76
2023/01/18 02:48:45;;;;;;;1999.90;999.90;;;0.80;99.90;;;;;;5038210;28;20042;-76
2023/01/18 02:51:10;;;;;;;1999.90;999.90;;;0.90;99.90;;;;;;5035672;28;20034;-76
2023/01/18 02:53:39;;;;;;;1999.90;999.90;;;0.90;99.90;;;;;;5034973;28;20034;-76
2023/01/18 02:56:13;;;;;;;1999.90;999.90;;;0.80;99.90;;;;;;5034509;28;20041;-76
2023/01/18 02:58:52;;;;;;;1999.90;999.90;;;0.80;99.90;;;;;;5035219;28;20022;-76
2023/01/18 03:01:25;;;;;;;1999.90;999.90;;;0.80;99.90;;;;;;5050989;28;20091;-76
2023/01/18 03:04:00;;;;;;;1999.90;999.90;;;0.80;99.90;;;;;;5033785;28;20030;-76
2023/01/18 03:06:28;;;;;;;1999.90;999.90;;;0.80;99.90;;;;;;5054148;28;20030;-76
2023/01/18 03:08:55;;;;;;;1999.90;999.90;;;0.80;99.90;;;;;;5058525;28;20033;-76
2023/01/18 03:11:26;;;;;;;1999.90;999.90;;;0.70;99.90;;;;;;5053473;28;20852;-76
2023/01/18 03:14:09;;;;;;;1999.90;999.90;;;0.70;99.90;;;;;;5054765;28;20034;-76
2023/01/18 03:17:01;;;;;;;1999.90;999.90;;;0.70;99.90;;;;;;5054464;28;20309;-76
2023/01/18 03:22:16;;;;;;;1999.90;999.90;;;0.70;99.90;;;;;;5054507;28;20112;-76
2023/01/18 03:24:43;;;;;;;1999.90;999.90;;;0.70;99.90;;;;;;5054598;28;20037;-76
2023/01/18 03:35:27;;;;;;;1999.90;999.90;;;0.60;99.90;;;;;;5053818;28;20034;-77
2023/01/18 03:37:55;;;;;;;1999.90;999.90;;;0.60;99.90;;;;;;5052429;28;20034;-76
2023/01/18 03:40:26;;;;;;;1999.90;999.90;;;0.60;99.90;;;;;;5052550;28;20524;-76
2023/01/18 03:42:54;;;;;;;1999.90;999.90;;;0.60;99.90;;;;;;5033162;28;20184;-76
2023/01/18 03:45:40;;;;;;;1999.90;999.90;;;0.60;99.90;;;;;;5032480;28;20132;-76
2023/01/18 03:48:07;;;;;;;1999.90;999.90;;;0.60;99.90;;;;;;5034241;28;20037;-76
2023/01/18 03:50:48;;;;;;;1999.90;999.90;;;0.60;99.90;;;;;;5035946;28;20084;-76
2023/01/18 03:53:21;;;;;;;1999.90;999.90;;;0.60;99.90;;;;;;5039975;28;20034;-76
2023/01/18 03:55:51;;;;;;;1999.90;999.90;;;0.60;99.90;;;;;;5036375;28;20041;-76
2023/01/18 03:58:24;;;;;;;1999.90;999.90;;;0.60;99.90;;;;;;5037888;28;20133;-76
2023/01/18 04:00:51;;;;;;;1999.90;999.90;;;0.60;99.90;;;;;;5037773;28;20557;-76
2023/01/18 04:03:17;;;;;;;1999.90;999.90;;;0.60;99.90;;;;;;5037670;28;20065;-76
2023/01/18 04:05:42;;;;;;;1999.90;999.90;;;0.60;99.90;;;;;;5037559;28;20116;-76
2023/01/18 04:08:08;;;;;;;1999.90;999.90;;;0.60;99.90;;;;;;5054005;28;20430;-76
2023/01/18 04:10:34;;;;;;;1999.90;999.90;;;0.60;99.90;;;;;;5056188;28;20069;-76
2023/01/18 04:12:59;;;;;;;1999.90;999.90;;;0.50;99.90;;;;;;5057457;28;20040;-76
2023/01/18 04:15:25;;;;;;;1999.90;999.90;;;0.50;99.90;;;;;;5055696;28;20041;-76
2023/01/18 04:17:54;;;;;;;1999.90;999.90;;;0.50;99.90;;;;;;5055865;28;20026;-76
2023/01/18 04:20:20;;;;;;;1999.90;999.90;;;0.60;99.90;;;;;;5057307;28;20025;-76
2023/01/18 04:22:51;;;;;;;1999.90;999.90;;;0.50;99.90;;;;;;5038123;28;20034;-76
2023/01/18 04:25:16;;;;;;;1999.90;999.90;;;0.50;99.90;;;;;;5037160;28;20465;-76
2023/01/18 04:27:42;;;;;;;1999.90;999.90;;;0.60;99.90;;;;;;5038540;28;20033;-76
2023/01/18 04:30:08;;;;;;;1999.90;999.90;;;0.60;99.90;;;;;;5037442;28;20048;-76
2023/01/18 04:32:33;;;;;;;1999.90;999.90;;;0.60;99.90;;;;;;5054736;28;20057;-76
2023/01/18 04:34:59;;;;;;;1999.90;999.90;;;0.60;99.90;;;;;;5057156;28;20073;-76
2023/01/18 04:37:29;;;;;;;1999.90;999.90;;;0.60;99.90;;;;;;5056285;28;20069;-76
2023/01/18 04:39:55;;;;;;;1999.90;999.90;;;0.50;99.90;;;;;;5055797;28;20029;-76
2023/01/18 04:42:21;;;;;;;1999.90;999.90;;;0.50;99.90;;;;;;5039935;28;20751;-76
2023/01/18 04:44:46;;;;;;;1999.90;999.90;;;0.50;99.90;;;;;;5036921;28;20042;-76
2023/01/18 04:47:12;;;;;;;1999.90;999.90;;;0.40;99.90;;;;;;5036698;28;20036;-76
2023/01/18 04:49:37;;;;;;;1999.90;999.90;;;0.50;99.90;;;;;;5037189;28;20121;-76
2023/01/18 04:52:06;;;;;;;1999.90;999.90;;;0.40;99.90;;;;;;5036239;28;20479;-76
2023/01/18 04:54:31;;;;;;;1999.90;999.90;;;0.40;99.90;;;;;;5037532;28;20026;-77
2023/01/18 04:56:57;;;;;;;1999.90;999.90;;;0.40;99.90;;;;;;5036726;28;20373;-76
2023/01/18 04:59:22;;;;;;;1999.90;999.90;;;0.40;99.90;;;;;;5036812;28;20030;-76
2023/01/18 05:01:48;;;;;;;1999.90;999.90;;;0.40;99.90;;;;;;5036983;28;20072;-76
2023/01/18 05:04:13;;;;;;;1999.90;999.90;;;0.40;99.90;;;;;;5050471;28;20511;-76
2023/01/18 05:06:39;;;;;;;1999.90;999.90;;;0.30;99.90;;;;;;5055052;28;20065;-76
2023/01/18 05:09:04;;;;;;;1999.90;999.90;;;0.40;99.90;;;;;;5064393;28;20018;-76
2023/01/18 05:11:30;;;;;;;1999.90;999.90;;;0.40;99.90;;;;;;5069982;28;20042;-76
2023/01/18 05:13:55;;;;;;;1999.90;999.90;;;0.30;99.90;;;;;;5036773;28;20034;-76
2023/01/18 05:16:22;;;;;;;1999.90;999.90;;;0.30;99.90;;;;;;5048928;28;20041;-76
2023/01/18 05:18:48;;;;;;;1999.90;999.90;;;0.40;99.90;;;;;;5036569;28;20037;-76
2023/01/18 05:21:14;;;;;;;1999.90;999.90;;;0.40;99.90;;;;;;5034846;28;20042;-76
2023/01/18 05:23:40;;;;;;;1999.90;999.90;;;0.40;99.90;;;;;;5048613;28;20135;-76
2023/01/18 05:26:13;;;;;;;1999.90;999.90;;;0.40;99.90;;;;;;5054427;28;20069;-76
2023/01/18 05:28:39;;;;;;;1999.90;999.90;;;0.40;99.90;;;;;;5056564;28;20030;-76
2023/01/18 05:31:04;;;;;;;1999.90;999.90;;;0.40;99.90;;;;;;5056441;28;20044;-76
2023/01/18 05:33:30;;;;;;;1999.90;999.90;;;0.30;99.90;;;;;;5048808;28;20042;-76
2023/01/18 05:35:55;;;;;;;1999.90;999.90;;;0.40;99.90;;;;;;5035817;28;20034;-76
2023/01/18 05:38:22;;;;;;;1999.90;999.90;;;0.30;99.90;;;;;;5055292;28;20044;-76
2023/01/18 05:40:51;;;;;;;1999.90;999.90;;;0.40;99.90;;;;;;5055945;28;20037;-76
2023/01/18 05:43:17;;;;;;;1999.90;999.90;;;0.40;99.90;;;;;;5045971;28;20038;-76
2023/01/18 05:45:43;;;;;;;1999.90;999.90;;;0.40;99.90;;;;;;5037686;28;20175;-76
2023/01/18 05:48:10;;;;;;;1999.90;999.90;;;0.40;99.90;;;;;;5035943;28;20407;-76
2023/01/18 05:50:42;;;;;;;1999.90;999.90;;;0.40;99.90;;;;;;5034695;28;20038;-76
2023/01/18 05:53:08;;;;;;;1999.90;999.90;;;0.40;99.90;;;;;;5055801;28;20124;-76
2023/01/18 05:55:33;;;;;;;1999.90;999.90;;;0.40;99.90;;;;;;5055245;28;20398;-76
2023/01/18 05:57:59;;;;;;;1999.90;999.90;;;0.40;99.90;;;;;;5055754;28;20084;-76
2023/01/18 06:00:25;;;;;;;1999.90;999.90;;;0.40;99.90;;;;;;5055518;28;20384;-76
2023/01/18 06:02:52;;;;;;;1999.90;999.90;;;0.40;99.90;;;;;;5053700;28;20041;-76
2023/01/18 06:05:19;;;;;;;1999.90;999.90;;;0.40;99.90;;;;;;5053674;28;20037;-76
2023/01/18 06:07:46;;;;;;;1999.90;999.90;;;0.40;99.90;;;;;;5055498;28;20040;-76
2023/01/18 06:10:12;;;;;;;1999.90;999.90;;;0.50;99.90;;;;;;5055001;28;20034;-76
2023/01/18 06:12:39;;;;;;;1999.90;999.90;;;0.50;99.90;;;;;;5055160;28;20060;-76
2023/01/18 06:15:05;;;;;;;1999.90;999.90;;;0.50;99.90;;;;;;5038852;28;20471;-81
2023/01/18 06:17:31;;;;;;;1999.90;999.90;;;0.50;99.90;;;;;;5044590;28;20462;-76
2023/01/18 06:19:57;;;;;;;1999.90;999.90;;;0.50;99.90;;;;;;5056118;28;20079;-76
2023/01/18 06:22:22;;;;;;;1999.90;999.90;;;0.50;99.90;;;;;;5043290;28;20396;-76
2023/01/18 06:24:48;;;;;;;1999.90;999.90;;;0.50;99.90;;;;;;5036444;28;20427;-76
2023/01/18 06:27:14;;;;;;;1999.90;999.90;;;0.50;99.90;;;;;;5046863;28;20036;-76
2023/01/18 06:29:39;;;;;;;1999.90;999.90;;;0.50;99.90;;;;;;5055193;28;20539;-76
2023/01/18 06:32:05;;;;;;;1999.90;999.90;;;0.50;99.90;;;;;;5054105;28;20042;-76
2023/01/18 06:34:32;;;;;;;1999.90;999.90;;;0.50;99.90;;;;;;5055646;28;20044;-76
2023/01/18 06:36:58;;;;;;;1999.90;999.90;;;0.50;99.90;;;;;;5056047;28;20804;-76
2023/01/18 06:39:23;;;;;;;1999.90;999.90;;;0.50;99.90;;;;;;5056400;28;20116;-77
2023/01/18 06:41:49;;;;;;;1999.90;999.90;;;0.50;99.90;;;;;;5043963;28;20048;-76
2023/01/18 06:44:15;;;;;;;1999.90;999.90;;;0.50;99.90;;;;;;5035970;28;20037;-78
2023/01/18 06:46:43;;;;;;;1999.90;999.90;;;0.50;99.90;;;;;;5035869;28;20112;-78
2023/01/18 06:49:09;;;;;;;1999.90;999.90;;;0.50;99.90;;;;;;5035651;28;20537;-77
2023/01/18 06:51:35;;;;;;;1999.90;999.90;;;0.40;99.90;;;;;;5036443;28;20034;-77
2023/01/18 06:54:01;;;;;;;1999.90;999.90;;;0.50;99.90;;;;;;5042952;28;20037;-79
2023/01/18 06:56:28;;;;;;;1999.90;999.90;;;0.40;99.90;;;;;;5048495;28;20042;-77
2023/01/18 06:58:56;;;;;;;1999.90;999.90;;;0.40;99.90;;;;;;5037144;28;20056;-76
2023/01/18 07:01:22;;;;;;;1999.90;999.90;;;0.40;99.90;;;;;;5046858;28;20069;-76
2023/01/18 07:03:47;;;;;;;1999.90;999.90;;;0.40;99.90;;;;;;5038990;28;20044;-76
2023/01/18 07:06:13;;;;;;;1999.90;999.90;;;0.40;99.90;;;;;;5034544;28;20041;-76
2023/01/18 07:08:39;;;;;;;1999.90;999.90;;;0.40;99.90;;;;;;5033371;28;20037;-76
2023/01/18 07:11:10;;;;;;;1999.90;999.90;;;0.40;99.90;;;;;;5042380;28;20132;-76
2023/01/18 07:13:39;;;;;;;1999.90;999.90;;;0.40;99.90;;;;;;5054115;28;20033;-76
2023/01/18 07:16:05;;;;;;;1999.90;999.90;;;0.40;99.90;;;;;;5053566;28;20549;-76
2023/01/18 07:18:31;;;;;;;1999.90;999.90;;;0.40;99.90;;;;;;5056326;28;20049;-76
2023/01/18 07:21:01;;;;;;;1999.90;999.90;;;0.40;99.90;;;;;;5070492;28;20042;-76
2023/01/18 07:23:28;;;;;;;1999.90;999.90;;;0.50;99.90;;;;;;5056023;28;20029;-76
2023/01/18 07:26:01;;;;;;;1999.90;999.90;;;0.50;99.90;;;;;;5054534;28;20041;-76
2023/01/18 07:28:28;;;;;;;1999.90;999.90;;;0.50;99.90;;;;;;5052775;28;20040;-76
2023/01/18 07:30:53;;;;;;;1999.90;999.90;;;0.60;99.90;;;;;;5053258;28;20046;-76
2023/01/18 07:33:19;;;;;;;1999.90;999.90;;;0.60;99.90;;;;;;5053922;28;20037;-76
2023/01/18 07:35:44;;;;;;;1999.90;999.90;;;0.50;99.90;;;;;;5050241;28;20044;-76
2023/01/18 07:38:11;;;;;;;1999.90;999.90;;;0.50;99.90;;;;;;5042356;28;20128;-76
2023/01/18 07:40:36;;;;;;;1999.90;999.90;;;0.50;99.90;;;;;;5052741;28;20038;-76
2023/01/18 07:43:02;;;;;;;1999.90;999.90;;;0.50;99.90;;;;;;5054050;28;20039;-77
2023/01/18 07:45:28;;;;;;;1999.90;999.90;;;0.50;99.90;;;;;;5054214;28;20188;-76
2023/01/18 07:47:54;;;;;;;1999.90;999.90;;;0.50;99.90;;;;;;5050149;28;20037;-76
2023/01/18 07:50:21;;;;;;;1999.90;999.90;;;0.50;99.90;;;;;;5054100;28;20125;-76
2023/01/18 07:52:47;;;;;;;1999.90;999.90;;;0.60;99.90;;;;;;5054060;28;20087;-76
2023/01/18 07:55:12;;;;;;;1999.90;999.90;;;0.60;99.90;;;;;;5053889;28;20037;-76
2023/01/18 07:57:38;;;;;;;1999.90;999.90;;;0.60;99.90;;;;;;5053725;28;20091;-76
2023/01/18 08:00:06;;;;;;;1999.90;999.90;;;0.70;99.90;;;;;;5038161;28;20070;-76
2023/01/18 08:02:32;;;;;;;1999.90;999.90;;;0.70;99.90;;;;;;5034103;28;20022;-76
2023/01/18 08:04:58;;;;;;;1999.90;999.90;;;0.80;99.90;;;;;;5038863;28;20042;-76
2023/01/18 08:07:24;;;;;;;1999.90;999.90;;;0.70;99.90;;;;;;5039915;28;20068;-76
2023/01/18 08:09:49;;;;;;;1999.90;999.90;;;0.70;99.90;;;;;;5051992;28;20509;-76
2023/01/18 08:12:17;;;;;;;1999.90;999.90;;;0.60;99.90;;;;;;5053972;28;20321;-76
2023/01/18 08:14:43;;;;;;;1999.90;999.90;;;0.70;99.90;;;;;;5049501;28;20477;-77
2023/01/18 08:17:09;;;;;;;1999.90;999.90;;;0.60;99.90;;;;;;5052241;28;20088;-75
2023/01/18 08:19:35;;;;;;;1999.90;999.90;;;0.60;99.90;;;;;;5053913;28;20041;-75
2023/01/18 08:22:00;;;;;;;1999.90;999.90;;;0.70;99.90;;;;;;5054013;28;20087;-78
2023/01/18 08:24:26;;;;;;;1999.90;999.90;;;0.70;99.90;;;;;;5053854;28;20097;-76
2023/01/18 08:26:51;;;;;;;1999.90;999.90;;;0.70;99.90;;;;;;5053432;28;20038;-74
2023/01/18 08:29:17;;;;;;;1999.90;999.90;;;0.70;99.90;;;;;;5053755;28;20033;-75
2023/01/18 08:31:43;;;;;;;1999.90;999.90;;;0.80;99.90;;;;;;5038749;28;20096;-74
2023/01/18 08:34:08;;;;;;;1999.90;999.90;;;0.80;99.90;;;;;;5046531;28;20037;-74
2023/01/18 08:36:34;;;;;;;1999.90;999.90;;;0.70;99.90;;;;;;5050789;28;20080;-73
2023/01/18 08:38:59;;;;;;;1999.90;999.90;;;0.70;99.90;;;;;;5041759;28;20076;-74
2023/01/18 08:41:29;;;;;;;1999.90;999.90;;;0.70;99.90;;;;;;5035143;28;20033;-74
2023/01/18 08:43:57;;;;;;;1999.90;999.90;;;0.80;99.90;;;;;;5048198;28;20124;-74
2023/01/18 08:46:23;;;;;;;1999.90;999.90;;;0.80;99.90;;;;;;5045667;28;20034;-74
2023/01/18 08:48:56;;;;;;;1999.90;999.90;;;0.90;99.90;;;;;;5035742;28;20038;-74
2023/01/18 08:51:24;;;;;;;1999.90;999.90;;;1.00;99.90;;;;;;5045184;28;20037;-77
2023/01/18 08:53:51;;;;;;;1999.90;999.90;;;1.10;99.90;;;;;;5042913;28;20030;-73
2023/01/18 08:56:17;;;;;;;1999.90;999.90;;;1.10;99.90;;;;;;5036948;28;20381;-77
2023/01/18 08:58:43;;;;;;;1999.90;999.90;;;1.10;99.90;;;;;;5049598;28;20281;-76
2023/01/18 09:01:09;;;;;;;1999.90;999.90;;;1.10;99.90;;;;;;5048599;28;20487;-75
2023/01/18 09:03:35;;;;;;;1999.90;999.90;;;1.10;99.90;;;;;;5056677;28;20514;-75
2023/01/18 09:06:04;;;;;;;1999.90;999.90;;;1.20;99.90;;;;;;5054864;28;20033;-75
2023/01/18 09:08:30;;;;;;;1999.90;999.90;;;1.20;99.90;;;;;;5048370;28;20139;-76
2023/01/18 09:11:01;;;;;;;1999.90;999.90;;;1.20;99.90;;;;;;5055829;28;20040;-76
2023/01/18 09:13:27;;;;;;;1999.90;999.90;;;1.30;99.90;;;;;;5055086;28;20032;-76
2023/01/18 09:16:04;;;;;;;1999.90;999.90;;;1.40;99.90;;;;;;5043542;28;20415;-74
2023/01/18 09:18:30;;;;;;;1999.90;999.90;;;1.40;99.90;;;;;;5038275;28;20069;-76
2023/01/18 09:20:57;;;;;;;1999.90;999.90;;;1.40;99.90;;;;;;5043165;28;20041;-75
2023/01/18 09:23:23;;;;;;;1999.90;999.90;;;1.40;99.90;;;;;;5041115;28;20157;-75
2023/01/18 09:26:00;;;;;;;1999.90;999.90;;;1.50;99.90;;;;;;5050145;28;20033;-75
2023/01/18 09:28:26;;;;;;;1999.90;999.90;;;1.50;99.90;;;;;;5039719;28;20029;-75
2023/01/18 09:30:52;;;;;;;1999.90;999.90;;;1.60;99.90;;;;;;5054769;28;20594;-74
2023/01/18 09:33:18;;;;;;;1999.90;999.90;;;1.70;99.90;;;;;;5053580;28;20053;-74
2023/01/18 09:35:43;;;;;;;1999.90;999.90;;;1.80;99.90;;;;;;5055144;28;20100;-80
2023/01/18 09:38:11;;;;;;;1999.90;999.90;;;1.70;99.90;;;;;;5049902;28;20037;-75
2023/01/18 09:40:42;;;;;;;1999.90;999.90;;;1.80;99.90;;;;;;5063853;28;20384;-75
2023/01/18 09:43:26;;;;;;;1999.90;999.90;;;1.80;99.90;;;;;;5059243;28;20521;-75
2023/01/18 09:45:52;;;;;;;1999.90;999.90;;;1.80;99.90;;;;;;5050978;28;20125;-74
2023/01/18 09:48:27;;;;;;;1999.90;999.90;;;2.00;99.90;;;;;;5044992;28;20514;-75
2023/01/18 09:50:54;;;;;;;1999.90;999.90;;;2.00;99.90;;;;;;5042428;28;20069;-75
2023/01/18 09:53:34;;;;;;;1999.90;999.90;;;2.00;99.90;;;;;;5044832;28;20447;-75
2023/01/18 09:56:22;;;;;;;1999.90;999.90;;;2.00;99.90;;;;;;5046915;28;20052;-75
2023/01/18 09:59:07;;;;;;;1999.90;999.90;;;2.00;99.90;;;;;;5047360;28;20510;-75
2023/01/18 10:01:34;;;;;;;1999.90;999.90;;;2.00;99.90;;;;;;5048436;28;20049;-75
2023/01/18 10:04:16;;;;;;;1999.90;999.90;;;2.10;99.90;;;;;;5051356;28;20037;-75
2023/01/18 10:06:55;;;;;;;1999.90;999.90;;;2.10;99.90;;;;;;5053326;28;20073;-75
2023/01/18 10:09:32;;;;;;;1999.90;999.90;;;2.10;99.90;;;;;;5052259;28;20033;-75
2023/01/18 10:12:06;;;;;;;1999.90;999.90;;;2.10;99.90;;;;;;5055302;28;20116;-75
2023/01/18 10:15:16;;;;;;;1999.90;999.90;;;2.30;99.90;;;;;;5049800;28;20034;-75
2023/01/18 10:17:43;;;;;;;1999.90;999.90;;;2.40;99.90;;;;;;5038233;28;20058;-75
2023/01/18 10:20:18;;;;;;;1999.90;999.90;;;2.40;99.90;;;;;;5039603;28;20038;-75
2023/01/18 10:22:55;;;;;;;1999.90;999.90;;;2.30;99.90;;;;;;5034403;28;20504;-77
2023/01/18 10:25:41;;;;;;;1999.90;999.90;;;2.40;99.90;;;;;;5046322;28;20033;-75
2023/01/18 10:28:31;;;;;;;1999.90;999.90;;;2.50;99.90;;;;;;5045430;28;20038;-76
2023/01/18 10:31:44;;;;;;;1999.90;999.90;;;2.30;99.90;;;;;;5033249;28;20145;-77
2023/01/18 10:34:31;;;;;;;1999.90;999.90;;;2.30;99.90;;;;;;5050222;28;20176;-77
2023/01/18 10:37:05;;;;;;;1999.90;999.90;;;2.30;99.90;;;;;;5055087;28;20041;-76
2023/01/18 10:39:46;;;;;;;1999.90;999.90;;;2.30;99.90;;;;;;5038443;28;20037;-76
2023/01/18 10:42:20;;;;;;;1999.90;999.90;;;2.30;99.90;;;;;;5035320;28;20042;-77
2023/01/18 10:44:46;;;;;;;1999.90;999.90;;;2.30;99.90;;;;;;5033953;28;20030;-77
2023/01/18 10:47:16;;;;;;;1999.90;999.90;;;2.20;99.90;;;;;;5049985;28;20036;-76
2023/01/18 10:49:44;;;;;;;1999.90;999.90;;;2.40;99.90;;;;;;5054891;28;20057;-77
2023/01/18 10:52:21;;;;;;;1999.90;999.90;;;2.40;99.90;;;;;;5054862;28;20550;-77
2023/01/18 10:55:09;;;;;;;1999.90;999.90;;;2.30;99.90;;;;;;5054838;28;20041;-77
2023/01/18 10:57:41;;;;;;;1999.90;999.90;;;2.40;99.90;;;;;;5053382;28;20132;-77
2023/01/18 11:00:26;;;;;;;1999.90;999.90;;;2.50;99.90;;;;;;5053636;28;20040;-77
2023/01/18 11:02:54;;;;;;;1999.90;999.90;;;2.60;99.90;;;;;;5046130;28;20038;-77
2023/01/18 11:05:21;;;;;;;1999.90;999.90;;;2.60;99.90;;;;;;5047466;28;20450;-77
2023/01/18 11:08:07;;;;;;;1999.90;999.90;;;2.60;99.90;;;;;;5050972;28;20049;-77
2023/01/18 11:10:36;;;;;;;1999.90;999.90;;;2.60;99.90;;;;;;5038446;28;20205;-77
2023/01/18 11:13:02;;;;;;;1999.90;999.90;;;2.80;99.90;;;;;;5046823;28;20487;-78
2023/01/18 11:15:28;;;;;;;1999.90;999.90;;;2.80;99.90;;;;;;5039384;28;20070;-80
2023/01/18 11:17:56;;;;;;;1999.90;999.90;;;2.90;99.90;;;;;;5050383;28;20526;-76
2023/01/18 11:20:37;;;;;;;1999.90;999.90;;;2.90;99.90;;;;;;5038168;28;20038;-77
2023/01/18 11:23:17;;;;;;;1999.90;999.90;;;3.00;99.90;;;;;;5046728;28;20101;-78
2023/01/18 11:25:54;;;;;;;1999.90;999.90;;;3.00;99.90;;;;;;5045242;28;20501;-77
2023/01/18 11:28:38;;;;;;;1999.90;999.90;;;3.10;99.90;;;;;;5054641;28;21044;-76
2023/01/18 11:31:12;;;;;;;1999.90;999.90;;;3.00;99.90;;;;;;5054267;28;20475;-76
2023/01/18 11:33:49;;;;;;;1999.90;999.90;;;3.30;99.90;;;;;;5054159;28;20160;-77
2023/01/18 11:36:17;;;;;;;1999.90;999.90;;;3.40;99.90;;;;;;5052024;28;20048;-77
2023/01/18 11:38:43;;;;;;;1999.90;999.90;;;3.70;99.90;;;;;;5053230;28;20108;-77
2023/01/18 11:41:14;;;;;;;1999.90;999.90;;;3.80;99.90;;;;;;5054608;28;20061;-81
2023/01/18 11:43:53;;;;;;;1999.90;999.90;;;3.70;99.90;;;;;;5054069;28;20037;-77
2023/01/18 11:46:47;;;;;;;1999.90;999.90;;;3.40;99.90;;;;;;5052695;28;20101;-76
2023/01/18 11:49:24;;;;;;;1999.90;999.90;;;3.40;99.90;;;;;;5054384;28;20091;-76
2023/01/18 11:51:58;;;;;;;1999.90;999.90;;;3.50;99.90;;;;;;5054287;28;20038;-77
2023/01/18 11:54:40;;;;;;;1999.90;999.90;;;3.40;99.90;;;;;;5059520;28;20029;-76
2023/01/18 11:57:11;;;;;;;1999.90;999.90;;;3.50;99.90;;;;;;5068624;28;20033;-76
2023/01/18 11:59:41;;;;;;;1999.90;999.90;;;3.60;99.90;;;;;;5054409;28;20032;-76
2023/01/18 12:02:22;;;;;;;1999.90;999.90;;;3.40;99.90;;;;;;5040417;28;20120;-76
2023/01/18 12:04:55;;;;;;;1999.90;999.90;;;3.50;99.90;;;;;;5039579;28;20612;-76
2023/01/18 12:07:59;;;;;;;1999.90;999.90;;;3.40;99.90;;;;;;5047327;28;20072;-75
2023/01/18 12:10:28;;;;;;;1999.90;999.90;;;3.20;99.90;;;;;;5047387;28;20033;-76
2023/01/18 12:13:05;;;;;;;1999.90;999.90;;;3.20;99.90;;;;;;5053865;28;20037;-76
2023/01/18 12:16:11;;;;;;;1999.90;999.90;;;3.30;99.90;;;;;;5053870;28;20091;-76
2023/01/18 12:18:56;;;;;;;1999.90;999.90;;;3.30;99.90;;;;;;5026035;28;20117;-76
2023/01/18 12:21:50;;;;;;;1999.90;999.90;;;3.40;99.90;;;;;;5057775;28;20030;-76
2023/01/18 12:24:54;;;;;;;1999.90;999.90;;;3.20;99.90;;;;;;5057295;28;20033;-76
2023/01/18 12:27:37;;;;;;;1999.90;999.90;;;3.20;99.90;;;;;;5056961;28;20038;-76
2023/01/18 12:30:34;;;;;;;1999.90;999.90;;;3.10;99.90;;;;;;5057466;28;20061;-76
2023/01/18 12:33:03;;;;;;;1999.90;999.90;;;3.00;99.90;;;;;;5057272;28;20029;-76
2023/01/18 12:35:50;;;;;;;1999.90;999.90;;;3.00;99.90;;;;;;5054320;28;20083;-77
2023/01/18 12:38:21;;;;;;;1999.90;999.90;;;2.90;99.90;;;;;;5055471;28;20049;-77
2023/01/18 12:40:58;;;;;;;1999.90;999.90;;;3.10;99.90;;;;;;5037776;28;20026;-76
2023/01/18 12:43:48;;;;;;;1999.90;999.90;;;3.20;99.90;;;;;;5047674;28;20038;-76
2023/01/18 12:46:22;;;;;;;1999.90;999.90;;;3.20;99.90;;;;;;5047992;28;20045;-76
2023/01/18 12:49:00;;;;;;;1999.90;999.90;;;3.20;99.90;;;;;;5049437;28;20037;-76
2023/01/18 12:51:30;;;;;;;1999.90;999.90;;;3.00;99.90;;;;;;5038482;28;20289;-76
2023/01/18 12:54:02;;;;;;;1999.90;999.90;;;2.90;99.90;;;;;;5054476;28;20041;-76
2023/01/18 12:56:36;;;;;;;1999.90;999.90;;;2.80;99.90;;;;;;5043193;28;20503;-76
2023/01/18 12:59:10;;;;;;;1999.90;999.90;;;2.60;99.90;;;;;;5057005;28;20033;-76
2023/01/18 13:01:42;;;;;;;1999.90;999.90;;;2.60;99.90;;;;;;5055042;28;20057;-76